createdAt,value
2018-05-21T00:01:38.776Z,8.30
2018-05-21T00:04:06.947Z,8.30
2018-05-21T00:06:35.857Z,8.20
2018-05-21T00:09:04.040Z,8.20
2018-05-21T00:11:32.187Z,8.20
2018-05-21T00:14:00.360Z,8.20
2018-05-21T00:16:28.508Z,8.10
2018-05-21T00:18:56.653Z,8.10
2018-05-21T00:21:24.825Z,8.10
2018-05-21T00:23:52.969Z,8.20
2018-05-21T00:26:21.144Z,8.20
2018-05-21T00:28:49.293Z,8.20
2018-05-21T00:31:17.474Z,8.20
2018-05-21T00:33:45.627Z,8.20
2018-05-21T00:36:13.799Z,8.10
2018-05-21T00:38:41.949Z,8.10
2018-05-21T00:41:10.122Z,8.10
2018-05-21T00:43:38.271Z,8.10
2018-05-21T00:46:06.444Z,8.10
2018-05-21T00:48:34.589Z,8.10
2018-05-21T00:51:02.764Z,8.00
2018-05-21T00:53:31.673Z,8.00
2018-05-21T00:55:59.839Z,8.00
2018-05-21T00:58:28.752Z,8.00
2018-05-21T01:00:56.932Z,8.00
2018-05-21T01:03:25.080Z,8.00
2018-05-21T01:05:53.253Z,8.00
2018-05-21T01:08:21.400Z,7.90
2018-05-21T01:10:49.574Z,7.90
2018-05-21T01:13:17.723Z,7.80
2018-05-21T01:15:45.948Z,7.80
2018-05-21T01:18:14.068Z,7.70
2018-05-21T01:20:42.237Z,7.70
2018-05-21T01:23:10.477Z,7.70
2018-05-21T01:25:39.412Z,7.80
2018-05-21T01:28:07.572Z,7.80
2018-05-21T01:30:35.751Z,7.80
2018-05-21T01:33:03.926Z,7.90
2018-05-21T01:35:32.104Z,7.80
2018-05-21T01:38:00.260Z,7.80
2018-05-21T01:40:28.440Z,7.80
2018-05-21T01:42:56.583Z,7.80
2018-05-21T01:45:25.516Z,7.80
2018-05-21T01:47:53.668Z,7.80
2018-05-21T01:50:21.856Z,7.90
2018-05-21T01:52:50.004Z,7.90
2018-05-21T01:55:18.223Z,8.00
2018-05-21T01:57:46.384Z,8.00
2018-05-21T02:00:14.592Z,7.90
2018-05-21T02:02:42.739Z,7.90
2018-05-21T02:05:10.921Z,7.90
2018-05-21T02:07:39.076Z,7.90
2018-05-21T02:10:07.262Z,7.90
2018-05-21T02:12:35.420Z,7.80
2018-05-21T02:15:03.579Z,7.80
2018-05-21T02:17:31.765Z,7.70
2018-05-21T02:20:00.023Z,7.70
2018-05-21T02:22:28.191Z,7.70
2018-05-21T02:24:56.360Z,7.70
2018-05-21T02:27:24.548Z,7.70
2018-05-21T02:29:52.722Z,7.70
2018-05-21T02:32:20.904Z,7.70
2018-05-21T02:34:49.065Z,7.70
2018-05-21T02:37:17.272Z,7.70
2018-05-21T02:39:45.439Z,7.70
2018-05-21T02:42:13.684Z,7.80
2018-05-21T02:44:41.833Z,7.70
2018-05-21T02:47:10.012Z,7.70
2018-05-21T02:49:38.188Z,7.70
2018-05-21T02:52:07.132Z,7.50
2018-05-21T02:54:35.296Z,7.50
2018-05-21T02:57:03.489Z,7.40
2018-05-21T02:59:31.648Z,7.40
2018-05-21T03:01:59.833Z,7.40
2018-05-21T03:04:27.995Z,7.40
2018-05-21T03:06:56.196Z,7.40
2018-05-21T03:09:24.344Z,7.40
2018-05-21T03:11:52.541Z,7.40
2018-05-21T03:14:20.705Z,7.40
2018-05-21T03:16:48.900Z,7.40
2018-05-21T03:19:17.052Z,7.40
2018-05-21T03:21:45.228Z,7.40
2018-05-21T03:24:13.387Z,7.40
2018-05-21T03:26:41.585Z,7.40
2018-05-21T03:29:09.732Z,7.40
2018-05-21T03:31:37.903Z,7.40
2018-05-21T03:34:06.065Z,7.40
2018-05-21T03:36:34.244Z,7.40
2018-05-21T03:39:02.402Z,7.40
2018-05-21T03:41:30.587Z,7.40
2018-05-21T03:43:58.747Z,7.40
2018-05-21T03:46:26.935Z,7.40
2018-05-21T03:48:55.084Z,7.40
2018-05-21T03:51:23.256Z,7.40
2018-05-21T03:53:51.401Z,7.40
2018-05-21T03:56:19.570Z,7.40
2018-05-21T03:58:59.504Z,7.50
2018-05-21T04:01:39.514Z,7.50
2018-05-21T04:04:07.661Z,7.60
2018-05-21T04:06:38.796Z,7.60
2018-05-21T04:09:06.943Z,7.60
2018-05-21T04:11:35.111Z,7.70
2018-05-21T04:14:03.258Z,7.80
2018-05-21T04:16:31.428Z,7.80
2018-05-21T04:18:59.576Z,7.90
2018-05-21T04:21:27.749Z,8.00
2018-05-21T04:23:55.907Z,8.00
2018-05-21T04:26:24.079Z,8.10
2018-05-21T04:28:52.220Z,8.20
2018-05-21T04:31:20.372Z,8.20
2018-05-21T04:33:48.544Z,8.30
2018-05-21T04:36:16.754Z,8.40
2018-05-21T04:38:44.893Z,8.50
2018-05-21T04:41:13.036Z,8.70
2018-05-21T04:43:41.202Z,8.80
2018-05-21T04:46:09.348Z,8.90
2018-05-21T04:48:37.525Z,9.10
2018-05-21T04:51:05.668Z,9.20
2018-05-21T04:53:33.836Z,9.30
2018-05-21T04:56:01.984Z,9.40
2018-05-21T04:58:30.153Z,9.60
2018-05-21T05:00:58.308Z,9.70
2018-05-21T05:03:26.480Z,9.80
2018-05-21T05:05:54.627Z,9.90
2018-05-21T05:08:22.804Z,10.00
2018-05-21T05:10:50.960Z,10.10
2018-05-21T05:13:19.133Z,10.20
2018-05-21T05:15:47.284Z,10.20
2018-05-21T05:18:16.223Z,10.40
2018-05-21T05:20:44.375Z,10.40
2018-05-21T05:23:12.555Z,10.50
2018-05-21T05:25:40.711Z,10.60
2018-05-21T05:28:08.897Z,10.70
2018-05-21T05:30:37.046Z,10.80
2018-05-21T05:33:05.220Z,10.90
2018-05-21T05:35:33.378Z,11.00
2018-05-21T05:38:01.556Z,11.10
2018-05-21T05:40:29.707Z,11.20
2018-05-21T05:42:57.897Z,11.30
2018-05-21T05:45:26.047Z,11.40
2018-05-21T05:47:54.220Z,11.50
2018-05-21T05:50:22.375Z,11.60
2018-05-21T05:52:50.554Z,11.80
2018-05-21T05:55:18.708Z,11.90
2018-05-21T05:57:46.888Z,12.00
2018-05-21T06:00:15.048Z,12.10
2018-05-21T06:02:43.220Z,12.20
2018-05-21T06:05:11.372Z,12.30
2018-05-21T06:07:39.550Z,12.40
2018-05-21T06:10:08.471Z,12.70
2018-05-21T06:12:36.651Z,12.60
2018-05-21T06:15:04.862Z,12.80
2018-05-21T06:17:33.063Z,12.80
2018-05-21T06:20:01.993Z,12.90
2018-05-21T06:22:30.187Z,12.90
2018-05-21T06:24:58.340Z,13.00
2018-05-21T06:27:26.491Z,13.20
2018-05-21T06:29:54.664Z,13.40
2018-05-21T06:32:22.819Z,13.50
2018-05-21T06:34:50.997Z,13.60
2018-05-21T06:37:19.145Z,13.70
2018-05-21T06:39:47.331Z,13.90
2018-05-21T06:42:15.483Z,13.90
2018-05-21T06:44:43.730Z,14.00
2018-05-21T06:47:11.942Z,14.10
2018-05-21T06:49:40.124Z,14.30
2018-05-21T06:52:08.271Z,14.40
2018-05-21T06:54:36.452Z,14.60
2018-05-21T06:57:05.368Z,14.70
2018-05-21T06:59:33.611Z,14.70
2018-05-21T07:02:01.819Z,14.80
2018-05-21T07:04:30.023Z,14.90
2018-05-21T07:06:58.184Z,15.10
2018-05-21T07:09:27.124Z,15.30
2018-05-21T07:11:55.307Z,15.20
2018-05-21T07:14:23.519Z,15.50
2018-05-21T07:16:51.689Z,15.80
2018-05-21T07:19:20.687Z,16.20
2018-05-21T07:21:49.735Z,16.50
2018-05-21T07:24:17.941Z,16.50
2018-05-21T07:26:46.104Z,16.70
2018-05-21T07:29:14.302Z,16.90
2018-05-21T07:31:42.462Z,17.10
2018-05-21T07:34:10.658Z,17.20
2018-05-21T07:36:39.639Z,17.40
2018-05-21T07:39:08.771Z,17.40
2018-05-21T07:41:37.204Z,17.40
2018-05-21T07:44:05.524Z,17.60
2018-05-21T07:46:33.812Z,17.80
2018-05-21T07:49:03.818Z,18.00
2018-05-21T07:51:32.505Z,18.10
2018-05-21T07:54:00.799Z,18.20
2018-05-21T07:56:28.990Z,18.30
2018-05-21T07:58:57.203Z,18.30
2018-05-21T08:01:26.167Z,18.40
2018-05-21T08:03:54.758Z,18.40
2018-05-21T08:06:23.009Z,18.50
2018-05-21T08:08:51.200Z,18.70
2018-05-21T08:11:19.366Z,18.90
2018-05-21T08:13:47.558Z,18.90
2018-05-21T08:16:15.750Z,18.80
2018-05-21T08:18:44.101Z,18.60
2018-05-21T08:21:12.304Z,18.70
2018-05-21T08:23:41.247Z,18.90
2018-05-21T08:26:09.438Z,18.80
2018-05-21T08:28:37.680Z,19.10
2018-05-21T08:31:05.920Z,19.30
2018-05-21T08:33:34.080Z,19.40
2018-05-21T08:36:02.260Z,19.40
2018-05-21T08:38:30.425Z,19.40
2018-05-21T08:40:58.603Z,19.60
2018-05-21T08:43:26.802Z,19.70
2018-05-21T08:45:55.752Z,19.80
2018-05-21T08:48:24.007Z,19.80
2018-05-21T08:50:52.127Z,19.90
2018-05-21T08:53:20.275Z,20.10
2018-05-21T08:55:48.471Z,20.20
2018-05-21T08:58:16.661Z,20.30
2018-05-21T09:00:45.658Z,20.30
2018-05-21T09:03:14.614Z,20.20
2018-05-21T09:05:42.810Z,20.20
2018-05-21T09:08:10.991Z,20.30
2018-05-21T09:10:39.204Z,20.30
2018-05-21T09:13:07.382Z,20.30
2018-05-21T09:15:35.734Z,20.40
2018-05-21T09:18:06.445Z,20.50
2018-05-21T09:20:34.637Z,20.40
2018-05-21T09:23:03.556Z,20.60
2018-05-21T09:25:31.780Z,20.60
2018-05-21T09:27:59.953Z,20.80
2018-05-21T09:30:28.132Z,20.80
2018-05-21T09:32:56.356Z,20.80
2018-05-21T09:35:24.550Z,20.80
2018-05-21T09:37:52.705Z,20.80
2018-05-21T09:40:20.889Z,20.90
2018-05-21T09:42:49.048Z,21.00
2018-05-21T09:45:17.229Z,21.00
2018-05-21T09:47:45.388Z,21.00
2018-05-21T09:50:13.572Z,21.20
2018-05-21T09:52:41.728Z,21.30
2018-05-21T09:55:09.909Z,21.40
2018-05-21T09:57:38.081Z,21.40
2018-05-21T10:00:06.260Z,21.30
2018-05-21T10:02:34.428Z,21.30
2018-05-21T10:05:02.608Z,21.30
2018-05-21T10:07:30.760Z,21.30
2018-05-21T10:09:59.703Z,21.40
2018-05-21T10:12:27.857Z,21.40
2018-05-21T10:14:56.036Z,21.50
2018-05-21T10:17:24.188Z,21.40
2018-05-21T10:19:52.359Z,21.50
2018-05-21T10:22:20.516Z,21.50
2018-05-21T10:24:49.460Z,21.50
2018-05-21T10:27:17.624Z,21.50
2018-05-21T10:29:45.829Z,21.50
2018-05-21T10:32:13.981Z,21.40
2018-05-21T10:34:42.168Z,21.50
2018-05-21T10:37:10.407Z,21.60
2018-05-21T10:39:38.508Z,21.70
2018-05-21T10:42:06.690Z,21.70
2018-05-21T10:44:34.852Z,21.70
2018-05-21T10:47:03.039Z,21.80
2018-05-21T10:49:31.984Z,21.80
2018-05-21T10:52:00.164Z,21.80
2018-05-21T10:54:28.315Z,21.70
2018-05-21T10:56:56.519Z,21.70
2018-05-21T10:59:24.700Z,21.70
2018-05-21T11:01:52.904Z,21.80
2018-05-21T11:04:21.860Z,21.80
2018-05-21T11:06:50.044Z,21.70
2018-05-21T11:09:18.197Z,21.80
2018-05-21T11:11:46.380Z,21.80
2018-05-21T11:14:14.544Z,21.80
2018-05-21T11:16:42.719Z,21.80
2018-05-21T11:19:10.873Z,21.80
2018-05-21T11:21:39.812Z,21.80
2018-05-21T11:24:07.968Z,21.80
2018-05-21T11:26:36.149Z,21.80
2018-05-21T11:29:04.303Z,21.90
2018-05-21T11:31:32.496Z,22.00
2018-05-21T11:34:00.656Z,21.90
2018-05-21T11:36:28.826Z,21.80
2018-05-21T11:38:56.979Z,21.70
2018-05-21T11:41:25.936Z,21.80
2018-05-21T11:43:54.094Z,21.80
2018-05-21T11:46:22.329Z,21.90
2018-05-21T11:48:50.437Z,22.00
2018-05-21T11:51:18.630Z,21.90
2018-05-21T11:53:46.780Z,22.00
2018-05-21T11:56:14.969Z,21.90
2018-05-21T11:58:43.170Z,22.00
2018-05-21T12:01:11.351Z,22.00
2018-05-21T12:03:39.499Z,21.90
2018-05-21T12:06:07.676Z,22.00
2018-05-21T12:08:35.913Z,22.10
2018-05-21T12:11:04.096Z,22.10
2018-05-21T12:13:32.260Z,22.10
2018-05-21T12:16:00.466Z,22.20
2018-05-21T12:18:28.641Z,22.20
2018-05-21T12:20:56.840Z,22.30
2018-05-21T12:23:24.996Z,22.30
2018-05-21T12:25:53.189Z,22.20
2018-05-21T12:28:21.343Z,22.10
2018-05-21T12:30:49.519Z,22.10
2018-05-21T12:33:17.677Z,22.20
2018-05-21T12:35:45.859Z,22.20
2018-05-21T12:38:14.036Z,22.30
2018-05-21T12:40:42.192Z,22.30
2018-05-21T12:43:10.367Z,22.30
2018-05-21T12:45:38.520Z,22.10
2018-05-21T12:48:06.699Z,22.20
2018-05-21T12:50:34.945Z,22.30
2018-05-21T12:53:03.126Z,22.30
2018-05-21T12:55:31.296Z,22.30
2018-05-21T12:58:00.252Z,22.40
2018-05-21T13:00:28.428Z,22.30
2018-05-21T13:02:56.619Z,22.30
2018-05-21T13:05:24.775Z,22.40
2018-05-21T13:07:52.952Z,22.50
2018-05-21T13:10:21.101Z,22.60
2018-05-21T13:12:49.278Z,22.60
2018-05-21T13:15:17.457Z,22.50
2018-05-21T13:17:45.642Z,22.50
2018-05-21T13:20:13.799Z,22.50
2018-05-21T13:22:41.980Z,22.50
2018-05-21T13:25:10.133Z,22.50
2018-05-21T13:27:38.317Z,22.40
2018-05-21T13:30:06.469Z,22.50
2018-05-21T13:32:34.652Z,22.50
2018-05-21T13:35:02.811Z,22.50
2018-05-21T13:37:30.987Z,22.40
2018-05-21T13:39:59.145Z,22.40
2018-05-21T13:42:27.320Z,22.30
2018-05-21T13:44:55.471Z,22.40
2018-05-21T13:47:23.648Z,22.40
2018-05-21T13:49:51.804Z,22.40
2018-05-21T13:52:20.065Z,22.30
2018-05-21T13:54:48.197Z,22.30
2018-05-21T13:57:16.466Z,22.30
2018-05-21T13:59:45.410Z,22.30
2018-05-21T14:02:13.599Z,22.30
2018-05-21T14:04:41.748Z,22.30
2018-05-21T14:07:09.935Z,22.30
2018-05-21T14:09:38.087Z,22.20
2018-05-21T14:12:06.261Z,22.20
2018-05-21T14:14:34.416Z,22.20
2018-05-21T14:17:02.752Z,22.10
2018-05-21T14:19:30.912Z,22.10
2018-05-21T14:21:59.091Z,22.10
2018-05-21T14:24:27.247Z,22.20
2018-05-21T14:26:55.428Z,22.10
2018-05-21T14:29:23.666Z,22.10
2018-05-21T14:31:51.858Z,22.10
2018-05-21T14:34:20.020Z,22.10
2018-05-21T14:36:48.202Z,22.10
2018-05-21T14:39:16.430Z,22.00
2018-05-21T14:41:44.569Z,22.00
2018-05-21T14:44:12.725Z,21.90
2018-05-21T14:46:40.908Z,22.00
2018-05-21T14:49:09.060Z,22.00
2018-05-21T14:51:37.242Z,22.00
2018-05-21T14:54:05.409Z,22.00
2018-05-21T14:56:33.605Z,21.90
2018-05-21T14:59:01.781Z,21.90
2018-05-21T15:01:29.935Z,21.90
2018-05-21T15:03:58.121Z,21.90
2018-05-21T15:06:26.276Z,21.90
2018-05-21T15:08:54.457Z,21.90
2018-05-21T15:11:22.616Z,21.90
2018-05-21T15:13:50.794Z,21.90
2018-05-21T15:16:18.944Z,21.90
2018-05-21T15:18:47.911Z,22.00
2018-05-21T15:21:16.079Z,21.90
2018-05-21T15:23:44.260Z,22.00
2018-05-21T15:26:12.419Z,21.90
2018-05-21T15:28:40.597Z,21.90
2018-05-21T15:31:08.761Z,21.90
2018-05-21T15:33:36.936Z,21.90
2018-05-21T15:36:05.161Z,21.90
2018-05-21T15:38:34.164Z,21.90
2018-05-21T15:41:02.320Z,21.90
2018-05-21T15:43:30.496Z,21.80
2018-05-21T15:45:59.407Z,21.70
2018-05-21T15:48:27.588Z,21.70
2018-05-21T15:50:55.736Z,21.70
2018-05-21T15:53:24.680Z,21.60
2018-05-21T15:55:52.948Z,21.60
2018-05-21T15:58:21.133Z,21.50
2018-05-21T16:00:49.287Z,21.40
2018-05-21T16:03:17.473Z,21.40
2018-05-21T16:05:45.623Z,21.40
2018-05-21T16:08:13.796Z,21.30
2018-05-21T16:10:41.947Z,21.30
2018-05-21T16:13:10.129Z,21.30
2018-05-21T16:15:38.277Z,21.30
2018-05-21T16:18:06.455Z,21.30
2018-05-21T16:20:34.604Z,21.20
2018-05-21T16:23:02.797Z,21.20
2018-05-21T16:25:30.952Z,21.20
2018-05-21T16:27:59.122Z,21.10
2018-05-21T16:30:27.284Z,21.10
2018-05-21T16:32:55.460Z,21.00
2018-05-21T16:35:23.745Z,20.90
2018-05-21T16:37:51.915Z,20.90
2018-05-21T16:40:20.084Z,20.80
2018-05-21T16:42:48.254Z,20.70
2018-05-21T16:45:16.432Z,20.60
2018-05-21T16:47:44.610Z,20.60
2018-05-21T16:50:12.803Z,20.50
2018-05-21T16:52:40.956Z,20.40
2018-05-21T16:55:09.136Z,20.20
2018-05-21T16:57:37.288Z,20.20
2018-05-21T17:00:05.549Z,20.10
2018-05-21T17:02:33.683Z,20.00
2018-05-21T17:05:01.864Z,20.00
2018-05-21T17:07:30.787Z,19.80
2018-05-21T17:09:58.959Z,19.80
2018-05-21T17:12:27.113Z,19.70
2018-05-21T17:14:55.365Z,19.80
2018-05-21T17:17:23.519Z,19.60
2018-05-21T17:19:51.692Z,19.60
2018-05-21T17:22:19.862Z,19.50
2018-05-21T17:24:48.079Z,19.40
2018-05-21T17:27:16.299Z,19.40
2018-05-21T17:29:44.484Z,19.30
2018-05-21T17:32:12.644Z,19.30
2018-05-21T17:34:40.885Z,19.20
2018-05-21T17:37:09.884Z,19.10
2018-05-21T17:39:38.833Z,19.00
2018-05-21T17:42:06.998Z,19.10
2018-05-21T17:44:35.200Z,19.00
2018-05-21T17:47:03.364Z,18.90
2018-05-21T17:49:31.552Z,18.90
2018-05-21T17:51:59.717Z,18.80
2018-05-21T17:54:27.931Z,18.80
2018-05-21T17:56:56.084Z,18.70
2018-05-21T17:59:24.275Z,18.60
2018-05-21T18:01:52.435Z,18.60
2018-05-21T18:04:21.388Z,18.40
2018-05-21T18:06:49.548Z,18.40
2018-05-21T18:09:17.731Z,18.40
2018-05-21T18:11:45.892Z,18.30
2018-05-21T18:14:14.074Z,18.20
2018-05-21T18:16:42.231Z,18.20
2018-05-21T18:19:10.416Z,18.10
2018-05-21T18:21:38.572Z,18.00
2018-05-21T18:24:07.611Z,17.90
2018-05-21T18:26:35.814Z,17.80
2018-05-21T18:29:04.003Z,17.80
2018-05-21T18:31:32.161Z,17.70
2018-05-21T18:34:00.345Z,17.60
2018-05-21T18:36:28.522Z,17.60
2018-05-21T18:38:56.699Z,17.50
2018-05-21T18:41:24.866Z,17.40
2018-05-21T18:43:53.821Z,17.30
2018-05-21T18:46:21.980Z,17.20
2018-05-21T18:48:50.136Z,17.20
2018-05-21T18:51:18.317Z,17.10
2018-05-21T18:53:47.173Z,17.00
2018-05-21T18:56:16.037Z,16.90
2018-05-21T18:58:44.216Z,16.80
2018-05-21T19:01:12.392Z,16.80
2018-05-21T19:03:40.568Z,16.70
2018-05-21T19:06:08.741Z,16.60
2018-05-21T19:08:37.700Z,16.50
2018-05-21T19:11:05.870Z,16.40
2018-05-21T19:13:34.052Z,16.40
2018-05-21T19:16:02.240Z,16.30
2018-05-21T19:18:30.440Z,16.20
2018-05-21T19:20:58.593Z,16.10
2018-05-21T19:23:26.798Z,16.10
2018-05-21T19:25:54.946Z,16.00
2018-05-21T19:28:24.015Z,15.90
2018-05-21T19:30:52.169Z,15.90
2018-05-21T19:33:20.576Z,15.70
2018-05-21T19:35:48.737Z,15.70
2018-05-21T19:38:16.935Z,15.60
2018-05-21T19:40:45.166Z,15.60
2018-05-21T19:43:13.321Z,15.50
2018-05-21T19:45:41.511Z,15.50
2018-05-21T19:48:09.662Z,15.40
2018-05-21T19:50:37.852Z,15.40
2018-05-21T19:53:06.023Z,15.30
2018-05-21T19:55:34.209Z,15.30
2018-05-21T19:58:02.374Z,15.20
2018-05-21T20:00:30.548Z,15.20
2018-05-21T20:02:58.752Z,15.10
2018-05-21T20:05:27.583Z,15.00
2018-05-21T20:07:56.397Z,14.90
2018-05-21T20:10:24.581Z,14.90
2018-05-21T20:12:52.799Z,14.80
2018-05-21T20:15:20.980Z,14.70
2018-05-21T20:17:49.140Z,14.70
2018-05-21T20:20:17.316Z,14.60
2018-05-21T20:22:45.522Z,14.50
2018-05-21T20:25:13.742Z,14.50
2018-05-21T20:27:42.009Z,14.40
2018-05-21T20:30:10.211Z,14.30
2018-05-21T20:32:38.379Z,14.20
2018-05-21T20:35:06.581Z,14.20
2018-05-21T20:37:34.749Z,14.10
2018-05-21T20:40:03.009Z,14.10
2018-05-21T20:42:31.273Z,14.10
2018-05-21T20:44:59.481Z,14.10
2018-05-21T20:47:27.664Z,14.00
2018-05-21T20:49:56.621Z,13.90
2018-05-21T20:52:24.771Z,13.90
2018-05-21T20:54:52.936Z,13.90
2018-05-21T20:57:21.120Z,13.80
2018-05-21T20:59:49.284Z,13.70
2018-05-21T21:02:17.480Z,13.70
2018-05-21T21:04:45.647Z,13.60
2018-05-21T21:07:13.828Z,13.60
2018-05-21T21:09:41.975Z,13.50
2018-05-21T21:12:10.152Z,13.40
2018-05-21T21:14:38.312Z,13.30
2018-05-21T21:17:06.487Z,13.20
2018-05-21T21:19:34.635Z,13.10
2018-05-21T21:22:02.811Z,13.00
2018-05-21T21:24:31.788Z,12.90
2018-05-21T21:26:59.964Z,12.90
2018-05-21T21:29:28.132Z,12.80
2018-05-21T21:31:56.316Z,12.80
2018-05-21T21:34:24.521Z,12.80
2018-05-21T21:36:52.706Z,12.70
2018-05-21T21:39:20.868Z,12.70
2018-05-21T21:41:49.052Z,12.60
2018-05-21T21:44:17.255Z,12.50
2018-05-21T21:46:45.445Z,12.40
2018-05-21T21:49:13.609Z,12.30
2018-05-21T21:51:41.802Z,12.20
2018-05-21T21:54:09.969Z,12.20
2018-05-21T21:56:38.156Z,12.20
2018-05-21T21:59:06.307Z,12.10
2018-05-21T22:01:34.492Z,12.10
2018-05-21T22:04:02.650Z,12.10
2018-05-21T22:06:30.840Z,12.00
2018-05-21T22:08:58.996Z,12.00
2018-05-21T22:11:27.214Z,11.90
2018-05-21T22:13:55.370Z,11.90
2018-05-21T22:16:23.565Z,11.90
2018-05-21T22:18:51.741Z,11.90
2018-05-21T22:21:19.922Z,12.00
2018-05-21T22:23:48.853Z,12.00
2018-05-21T22:26:17.091Z,11.90
2018-05-21T22:28:45.252Z,12.00
2018-05-21T22:31:13.448Z,12.00
2018-05-21T22:33:41.608Z,12.00
2018-05-21T22:36:09.792Z,11.90
2018-05-21T22:38:37.944Z,12.00
2018-05-21T22:41:06.116Z,11.90
2018-05-21T22:43:34.286Z,11.90
2018-05-21T22:46:02.464Z,11.80
2018-05-21T22:48:30.620Z,11.80
2018-05-21T22:50:58.772Z,11.80
2018-05-21T22:53:26.957Z,11.70
2018-05-21T22:55:55.120Z,11.70
2018-05-21T22:58:23.297Z,11.60
2018-05-21T23:00:51.448Z,11.60
2018-05-21T23:03:19.627Z,11.60
2018-05-21T23:05:47.783Z,11.50
2018-05-21T23:08:15.956Z,11.50
2018-05-21T23:10:44.108Z,11.50
2018-05-21T23:13:13.076Z,11.40
2018-05-21T23:15:41.228Z,11.40
2018-05-21T23:18:09.408Z,11.40
2018-05-21T23:20:37.577Z,11.30
2018-05-21T23:23:05.751Z,11.20
2018-05-21T23:25:33.899Z,11.20
2018-05-21T23:28:02.128Z,11.10
2018-05-21T23:30:31.064Z,11.10
2018-05-21T23:32:59.262Z,11.10
2018-05-21T23:35:27.449Z,11.10
2018-05-21T23:37:55.669Z,11.00
2018-05-21T23:40:24.586Z,11.00
2018-05-21T23:42:52.763Z,11.00
2018-05-21T23:45:20.916Z,10.90
2018-05-21T23:47:49.091Z,10.90
2018-05-21T23:50:17.241Z,10.80
2018-05-21T23:52:46.184Z,10.80
2018-05-21T23:55:14.337Z,10.70
2018-05-21T23:57:42.515Z,10.70
